createdAt,value
2018-04-22T00:00:21.158Z,9.70
2018-04-22T00:00:55.187Z,16.05
2018-04-22T00:01:28.452Z,10.07
2018-04-22T00:02:01.740Z,9.25
2018-04-22T00:02:34.994Z,9.52
2018-04-22T00:03:09.034Z,9.18
2018-04-22T00:03:42.288Z,10.45
2018-04-22T00:04:15.552Z,9.07
2018-04-22T00:04:49.584Z,9.65
2018-04-22T00:05:22.845Z,9.57
2018-04-22T00:05:56.107Z,8.95
2018-04-22T00:06:30.141Z,8.95
2018-04-22T00:07:03.416Z,10.23
2018-04-22T00:07:36.688Z,8.90
2018-04-22T00:08:09.951Z,9.68
2018-04-22T00:08:43.216Z,8.88
2018-04-22T00:09:17.243Z,8.57
2018-04-22T00:09:50.521Z,8.90
2018-04-22T00:10:23.780Z,9.82
2018-04-22T00:10:57.820Z,9.20
2018-04-22T00:11:31.109Z,10.90
2018-04-22T00:12:04.403Z,10.07
2018-04-22T00:12:37.677Z,12.00
2018-04-22T00:13:11.719Z,8.68
2018-04-22T00:13:45.748Z,7.57
2018-04-22T00:14:19.004Z,11.52
2018-04-22T00:14:52.264Z,8.68
2018-04-22T00:15:26.294Z,8.18
2018-04-22T00:15:59.567Z,8.88
2018-04-22T00:16:32.848Z,9.52
2018-04-22T00:17:06.144Z,10.88
2018-04-22T00:17:39.405Z,9.18
2018-04-22T00:18:12.659Z,9.38
2018-04-22T00:18:46.697Z,8.95
2018-04-22T00:19:19.949Z,9.40
2018-04-22T00:19:53.980Z,9.68
2018-04-22T00:20:27.244Z,10.20
2018-04-22T00:21:00.524Z,9.07
2018-04-22T00:21:33.784Z,9.02
2018-04-22T00:22:07.093Z,8.80
2018-04-22T00:22:41.108Z,9.52
2018-04-22T00:23:14.368Z,8.68
2018-04-22T00:23:47.645Z,9.13
2018-04-22T00:24:20.909Z,8.65
2018-04-22T00:24:54.166Z,10.80
2018-04-22T00:25:27.432Z,10.38
2018-04-22T00:26:00.699Z,9.40
2018-04-22T00:26:33.960Z,13.00
2018-04-22T00:27:07.242Z,11.25
2018-04-22T00:27:40.532Z,9.48
2018-04-22T00:28:13.809Z,10.55
2018-04-22T00:28:47.081Z,9.63
2018-04-22T00:29:20.348Z,9.23
2018-04-22T00:29:53.605Z,9.38
2018-04-22T00:30:27.631Z,9.70
2018-04-22T00:31:00.916Z,11.98
2018-04-22T00:31:34.231Z,8.70
2018-04-22T00:32:07.548Z,9.20
2018-04-22T00:32:41.592Z,8.70
2018-04-22T00:33:14.859Z,9.02
2018-04-22T00:33:48.129Z,9.88
2018-04-22T00:34:21.391Z,8.73
2018-04-22T00:34:54.650Z,8.60
2018-04-22T00:35:28.682Z,9.57
2018-04-22T00:36:01.962Z,10.05
2018-04-22T00:36:35.233Z,8.85
2018-04-22T00:37:09.256Z,8.38
2018-04-22T00:37:43.309Z,8.77
2018-04-22T00:38:17.340Z,8.40
2018-04-22T00:38:50.612Z,8.73
2018-04-22T00:39:23.881Z,8.13
2018-04-22T00:39:57.904Z,9.88
2018-04-22T00:40:31.172Z,9.75
2018-04-22T00:41:04.433Z,9.20
2018-04-22T00:41:38.471Z,10.38
2018-04-22T00:42:11.977Z,9.50
2018-04-22T00:42:45.272Z,9.25
2018-04-22T00:43:18.553Z,8.50
2018-04-22T00:43:51.825Z,8.77
2018-04-22T00:44:25.113Z,9.85
2018-04-22T00:44:58.364Z,8.77
2018-04-22T00:45:31.835Z,8.98
2018-04-22T00:46:05.888Z,8.80
2018-04-22T00:46:39.149Z,9.90
2018-04-22T00:47:12.417Z,11.38
2018-04-22T00:47:45.709Z,9.90
2018-04-22T00:48:18.995Z,9.60
2018-04-22T00:48:52.248Z,9.15
2018-04-22T00:49:25.515Z,9.45
2018-04-22T00:49:58.789Z,8.65
2018-04-22T00:50:32.053Z,8.88
2018-04-22T00:51:05.325Z,8.85
2018-04-22T00:51:39.353Z,8.95
2018-04-22T00:52:12.629Z,9.02
2018-04-22T00:52:45.903Z,9.68
2018-04-22T00:53:19.264Z,9.88
2018-04-22T00:54:04.348Z,9.65
2018-04-22T00:54:37.624Z,9.80
2018-04-22T00:55:10.901Z,10.70
2018-04-22T00:55:44.157Z,10.60
2018-04-22T00:56:18.192Z,10.57
2018-04-22T00:56:51.460Z,11.02
2018-04-22T00:57:24.734Z,10.45
2018-04-22T00:57:58.019Z,9.15
2018-04-22T00:58:31.272Z,9.02
2018-04-22T00:59:05.296Z,10.18
2018-04-22T00:59:38.583Z,10.25
2018-04-22T01:00:11.839Z,9.32
2018-04-22T01:00:45.108Z,11.30
2018-04-22T01:01:18.378Z,8.95
2018-04-22T01:01:51.649Z,9.25
2018-04-22T01:02:24.905Z,9.77
2018-04-22T01:02:58.180Z,9.15
2018-04-22T01:03:31.459Z,10.43
2018-04-22T01:04:04.732Z,10.35
2018-04-22T01:04:38.001Z,9.05
2018-04-22T01:05:11.284Z,9.50
2018-04-22T01:05:44.540Z,9.50
2018-04-22T01:06:17.805Z,9.27
2018-04-22T01:06:51.887Z,9.05
2018-04-22T01:07:25.151Z,10.68
2018-04-22T01:07:58.432Z,9.65
2018-04-22T01:08:31.704Z,9.95
2018-04-22T01:09:06.744Z,9.05
2018-04-22T01:09:40.028Z,10.55
2018-04-22T01:10:13.299Z,9.70
2018-04-22T01:10:46.557Z,8.77
2018-04-22T01:11:19.812Z,10.27
2018-04-22T01:11:53.088Z,9.25
2018-04-22T01:12:26.372Z,9.75
2018-04-22T01:12:59.632Z,9.27
2018-04-22T01:13:33.656Z,9.40
2018-04-22T01:14:06.914Z,10.10
2018-04-22T01:14:40.200Z,9.52
2018-04-22T01:15:14.243Z,9.75
2018-04-22T01:15:47.530Z,10.45
2018-04-22T01:16:20.852Z,12.80
2018-04-22T01:16:54.159Z,10.63
2018-04-22T01:17:27.445Z,9.73
2018-04-22T01:18:00.717Z,9.55
2018-04-22T01:18:33.981Z,9.45
2018-04-22T01:19:07.257Z,9.55
2018-04-22T01:19:41.318Z,9.57
2018-04-22T01:20:14.582Z,10.02
2018-04-22T01:20:47.862Z,9.43
2018-04-22T01:21:21.141Z,10.07
2018-04-22T01:21:54.440Z,9.27
2018-04-22T01:22:27.698Z,12.27
2018-04-22T01:23:00.975Z,10.73
2018-04-22T01:23:34.252Z,10.48
2018-04-22T01:24:07.533Z,8.90
2018-04-22T01:24:40.808Z,9.75
2018-04-22T01:25:14.098Z,9.02
2018-04-22T01:25:47.381Z,10.32
2018-04-22T01:26:20.663Z,9.93
2018-04-22T01:26:53.955Z,10.10
2018-04-22T01:27:27.211Z,9.82
2018-04-22T01:28:00.476Z,9.88
2018-04-22T01:28:33.744Z,11.02
2018-04-22T01:29:07.765Z,9.23
2018-04-22T01:29:41.027Z,8.85
2018-04-22T01:30:14.305Z,9.27
2018-04-22T01:30:47.569Z,9.10
2018-04-22T01:31:20.856Z,9.20
2018-04-22T01:31:54.902Z,11.07
2018-04-22T01:32:28.185Z,9.90
2018-04-22T01:33:01.467Z,8.82
2018-04-22T01:33:34.733Z,9.75
2018-04-22T01:34:08.010Z,10.25
2018-04-22T01:34:41.289Z,12.88
2018-04-22T01:35:14.558Z,8.82
2018-04-22T01:35:47.829Z,8.95
2018-04-22T01:36:21.874Z,10.20
2018-04-22T01:36:55.151Z,8.90
2018-04-22T01:37:28.405Z,8.63
2018-04-22T01:38:01.673Z,9.60
2018-04-22T01:38:34.938Z,9.65
2018-04-22T01:39:08.204Z,9.95
2018-04-22T01:39:42.240Z,9.77
2018-04-22T01:40:15.501Z,10.60
2018-04-22T01:40:48.772Z,10.00
2018-04-22T01:41:22.812Z,10.32
2018-04-22T01:41:56.073Z,9.40
2018-04-22T01:42:29.377Z,11.35
2018-04-22T01:43:02.631Z,9.48
2018-04-22T01:43:35.926Z,10.32
2018-04-22T01:44:09.197Z,9.32
2018-04-22T01:44:42.466Z,9.50
2018-04-22T01:45:16.484Z,9.02
2018-04-22T01:45:49.747Z,9.93
2018-04-22T01:46:23.011Z,9.27
2018-04-22T01:46:57.044Z,9.35
2018-04-22T01:47:30.308Z,9.68
2018-04-22T01:48:03.564Z,11.43
2018-04-22T01:48:37.609Z,9.77
2018-04-22T01:49:10.876Z,9.10
2018-04-22T01:49:44.140Z,9.43
2018-04-22T01:50:17.416Z,10.63
2018-04-22T01:50:50.679Z,10.02
2018-04-22T01:51:24.722Z,10.57
2018-04-22T01:51:57.986Z,10.60
2018-04-22T01:52:31.278Z,10.60
2018-04-22T01:53:04.544Z,10.10
2018-04-22T01:53:37.856Z,10.43
2018-04-22T01:54:11.121Z,10.40
2018-04-22T01:54:44.421Z,11.35
2018-04-22T01:55:17.684Z,10.75
2018-04-22T01:55:50.953Z,14.02
2018-04-22T01:56:24.232Z,9.32
2018-04-22T01:56:57.500Z,11.23
2018-04-22T01:57:30.789Z,10.43
2018-04-22T01:58:04.072Z,11.40
2018-04-22T01:58:37.352Z,10.93
2018-04-22T01:59:10.633Z,12.68
2018-04-22T01:59:43.912Z,11.40
2018-04-22T02:00:17.204Z,13.00
2018-04-22T02:00:50.483Z,12.65
2018-04-22T02:01:23.766Z,11.30
2018-04-22T02:01:57.073Z,10.88
2018-04-22T02:02:30.361Z,11.63
2018-04-22T02:03:03.653Z,10.63
2018-04-22T02:03:36.936Z,11.40
2018-04-22T02:04:10.217Z,12.20
2018-04-22T02:04:44.243Z,13.20
2018-04-22T02:05:17.536Z,11.45
2018-04-22T02:05:50.828Z,11.60
2018-04-22T02:06:24.101Z,10.60
2018-04-22T02:06:57.380Z,11.57
2018-04-22T02:07:30.653Z,11.45
2018-04-22T02:08:03.945Z,11.50
2018-04-22T02:08:37.230Z,10.63
2018-04-22T02:09:10.506Z,12.90
2018-04-22T02:09:43.784Z,11.25
2018-04-22T02:10:17.315Z,10.15
2018-04-22T02:10:50.576Z,11.75
2018-04-22T02:11:23.853Z,12.27
2018-04-22T02:11:57.201Z,12.88
2018-04-22T02:12:30.461Z,11.85
2018-04-22T02:13:03.745Z,14.52
2018-04-22T02:13:37.029Z,12.07
2018-04-22T02:14:10.302Z,11.63
2018-04-22T02:14:43.576Z,11.73
2018-04-22T02:15:16.852Z,12.45
2018-04-22T02:15:50.892Z,11.45
2018-04-22T02:16:24.170Z,12.50
2018-04-22T02:16:57.450Z,13.13
2018-04-22T02:17:30.734Z,11.60
2018-04-22T02:18:03.995Z,17.17
2018-04-22T02:18:37.300Z,13.15
2018-04-22T02:19:10.603Z,12.48
2018-04-22T02:19:43.861Z,12.30
2018-04-22T02:20:17.138Z,14.18
2018-04-22T02:20:50.408Z,11.82
2018-04-22T02:21:23.696Z,13.00
2018-04-22T02:21:56.965Z,14.68
2018-04-22T02:22:30.236Z,12.20
2018-04-22T02:23:03.516Z,13.07
2018-04-22T02:23:36.805Z,12.55
2018-04-22T02:24:10.108Z,14.55
2018-04-22T02:24:44.144Z,12.35
2018-04-22T02:25:18.180Z,12.48
2018-04-22T02:25:51.466Z,13.90
2018-04-22T02:26:24.733Z,12.70
2018-04-22T02:26:58.009Z,12.60
2018-04-22T02:27:31.276Z,16.08
2018-04-22T02:28:05.304Z,14.60
2018-04-22T02:28:38.609Z,11.65
2018-04-22T02:29:11.890Z,12.85
2018-04-22T02:29:45.175Z,12.32
2018-04-22T02:30:18.464Z,11.93
2018-04-22T02:30:51.727Z,12.57
2018-04-22T02:31:25.013Z,14.57
2018-04-22T02:31:58.280Z,12.63
2018-04-22T02:32:31.580Z,13.00
2018-04-22T02:33:04.881Z,12.20
2018-04-22T02:33:39.148Z,10.65
2018-04-22T02:34:12.441Z,13.40
2018-04-22T02:34:45.939Z,11.95
2018-04-22T02:35:19.209Z,11.55
2018-04-22T02:35:52.492Z,11.95
2018-04-22T02:36:25.769Z,11.77
2018-04-22T02:36:59.040Z,12.45
2018-04-22T02:37:32.316Z,12.00
2018-04-22T02:38:05.608Z,11.12
2018-04-22T02:38:38.884Z,12.82
2018-04-22T02:39:12.172Z,12.25
2018-04-22T02:39:45.448Z,11.55
2018-04-22T02:40:18.737Z,15.48
2018-04-22T02:40:52.013Z,12.20
2018-04-22T02:41:25.298Z,13.07
2018-04-22T02:42:00.078Z,11.60
2018-04-22T02:42:33.356Z,13.73
2018-04-22T02:43:06.632Z,11.82
2018-04-22T02:43:39.983Z,12.25
2018-04-22T02:44:13.217Z,11.98
2018-04-22T02:44:46.508Z,11.75
2018-04-22T02:45:19.785Z,11.75
2018-04-22T02:45:53.125Z,12.35
2018-04-22T02:46:26.406Z,12.43
2018-04-22T02:46:59.676Z,11.77
2018-04-22T02:47:32.940Z,11.10
2018-04-22T02:48:06.233Z,10.93
2018-04-22T02:48:39.501Z,11.43
2018-04-22T02:49:12.807Z,12.10
2018-04-22T02:49:46.327Z,12.15
2018-04-22T02:50:19.604Z,12.85
2018-04-22T02:50:52.894Z,11.85
2018-04-22T02:51:26.384Z,14.35
2018-04-22T02:51:59.707Z,11.77
2018-04-22T02:52:32.953Z,12.15
2018-04-22T02:53:06.229Z,13.15
2018-04-22T02:53:39.513Z,12.23
2018-04-22T02:54:12.781Z,12.65
2018-04-22T02:54:46.085Z,12.25
2018-04-22T02:55:19.353Z,14.90
2018-04-22T02:55:52.625Z,12.60
2018-04-22T02:56:25.896Z,11.90
2018-04-22T02:56:59.182Z,13.13
2018-04-22T02:57:32.454Z,11.75
2018-04-22T02:58:05.733Z,10.98
2018-04-22T02:58:38.998Z,11.70
2018-04-22T02:59:12.288Z,12.35
2018-04-22T02:59:45.581Z,11.50
2018-04-22T03:00:18.876Z,12.80
2018-04-22T03:00:52.149Z,12.57
2018-04-22T03:01:25.417Z,12.32
2018-04-22T03:01:58.708Z,12.20
2018-04-22T03:02:31.979Z,12.07
2018-04-22T03:03:05.257Z,11.63
2018-04-22T03:03:38.522Z,11.80
2018-04-22T03:04:11.820Z,11.95
2018-04-22T03:04:45.122Z,11.95
2018-04-22T03:05:18.398Z,13.02
2018-04-22T03:05:51.671Z,14.95
2018-04-22T03:06:24.997Z,12.75
2018-04-22T03:06:58.268Z,12.50
2018-04-22T03:07:31.539Z,11.95
2018-04-22T03:08:04.827Z,12.37
2018-04-22T03:08:38.098Z,13.45
2018-04-22T03:09:12.312Z,11.98
2018-04-22T03:09:45.596Z,12.27
2018-04-22T03:10:18.874Z,12.15
2018-04-22T03:10:52.148Z,13.23
2018-04-22T03:11:25.432Z,12.75
2018-04-22T03:11:58.698Z,13.93
2018-04-22T03:12:32.742Z,11.45
2018-04-22T03:13:06.017Z,12.55
2018-04-22T03:13:39.292Z,11.93
2018-04-22T03:14:12.572Z,13.77
2018-04-22T03:14:46.617Z,14.23
2018-04-22T03:15:19.900Z,13.25
2018-04-22T03:15:53.184Z,13.43
2018-04-22T03:16:27.225Z,12.50
2018-04-22T03:17:00.492Z,12.20
2018-04-22T03:17:33.765Z,12.65
2018-04-22T03:18:07.032Z,14.45
2018-04-22T03:18:41.072Z,15.63
2018-04-22T03:19:14.364Z,13.13
2018-04-22T03:19:47.653Z,13.05
2018-04-22T03:20:20.984Z,13.15
2018-04-22T03:20:54.260Z,13.43
2018-04-22T03:21:27.527Z,14.32
2018-04-22T03:22:01.581Z,12.73
2018-04-22T03:22:34.848Z,14.77
2018-04-22T03:23:08.111Z,12.95
2018-04-22T03:23:41.385Z,14.18
2018-04-22T03:24:14.681Z,13.60
2018-04-22T03:24:47.965Z,13.18
2018-04-22T03:25:21.266Z,13.93
2018-04-22T03:25:54.521Z,14.15
2018-04-22T03:26:27.796Z,12.80
2018-04-22T03:27:01.078Z,12.93
2018-04-22T03:27:34.357Z,13.73
2018-04-22T03:28:07.640Z,12.27
2018-04-22T03:28:41.673Z,13.50
2018-04-22T03:29:14.958Z,14.85
2018-04-22T03:29:48.232Z,12.77
2018-04-22T03:30:21.517Z,13.18
2018-04-22T03:30:54.807Z,13.60
2018-04-22T03:31:28.079Z,14.10
2018-04-22T03:32:01.348Z,12.27
2018-04-22T03:32:34.939Z,13.60
2018-04-22T03:33:08.223Z,12.55
2018-04-22T03:33:41.493Z,13.50
2018-04-22T03:34:14.790Z,12.85
2018-04-22T03:34:48.076Z,13.18
2018-04-22T03:35:21.352Z,13.10
2018-04-22T03:35:54.633Z,13.18
2018-04-22T03:36:27.913Z,12.77
2018-04-22T03:37:01.205Z,12.43
2018-04-22T03:37:34.494Z,13.43
2018-04-22T03:38:08.539Z,13.15
2018-04-22T03:38:41.828Z,13.32
2018-04-22T03:39:15.132Z,11.90
2018-04-22T03:39:48.416Z,13.77
2018-04-22T03:40:21.702Z,12.10
2018-04-22T03:40:54.988Z,12.57
2018-04-22T03:41:28.268Z,13.02
2018-04-22T03:42:02.319Z,12.50
2018-04-22T03:42:35.632Z,12.10
2018-04-22T03:43:08.881Z,11.35
2018-04-22T03:43:42.142Z,12.00
2018-04-22T03:44:15.420Z,11.95
2018-04-22T03:44:48.703Z,14.25
2018-04-22T03:45:21.988Z,12.10
2018-04-22T03:45:55.261Z,11.75
2018-04-22T03:46:28.528Z,12.27
2018-04-22T03:47:01.806Z,11.80
2018-04-22T03:47:35.860Z,13.50
2018-04-22T03:48:09.130Z,11.30
2018-04-22T03:48:42.416Z,12.27
2018-04-22T03:49:16.466Z,10.70
2018-04-22T03:49:50.519Z,12.65
2018-04-22T03:50:23.808Z,18.30
2018-04-22T03:50:57.089Z,10.73
2018-04-22T03:51:31.167Z,12.48
2018-04-22T03:52:05.190Z,13.30
2018-04-22T03:52:38.466Z,15.02
2018-04-22T03:53:11.759Z,11.63
2018-04-22T03:53:45.017Z,11.93
2018-04-22T03:54:18.292Z,12.05
2018-04-22T03:54:51.584Z,15.27
2018-04-22T03:55:24.852Z,12.52
2018-04-22T03:55:58.128Z,11.73
2018-04-22T03:56:31.404Z,13.18
2018-04-22T03:57:04.689Z,13.13
2018-04-22T03:57:37.962Z,12.88
2018-04-22T03:58:11.249Z,12.23
2018-04-22T03:58:44.524Z,11.25
2018-04-22T03:59:17.800Z,13.40
2018-04-22T03:59:51.088Z,12.88
2018-04-22T04:00:24.353Z,14.55
2018-04-22T04:00:57.632Z,13.35
2018-04-22T04:01:30.903Z,13.90
2018-04-22T04:02:04.205Z,13.07
2018-04-22T04:02:37.468Z,14.93
2018-04-22T04:03:10.739Z,12.88
2018-04-22T04:03:44.022Z,13.02
2018-04-22T04:04:17.287Z,13.77
2018-04-22T04:04:50.872Z,14.77
2018-04-22T04:05:24.152Z,12.77
2018-04-22T04:05:57.433Z,14.25
2018-04-22T04:06:30.720Z,14.52
2018-04-22T04:07:04.759Z,13.57
2018-04-22T04:07:38.020Z,15.35
2018-04-22T04:08:11.299Z,14.25
2018-04-22T04:08:44.577Z,13.93
2018-04-22T04:09:17.848Z,13.80
2018-04-22T04:09:51.136Z,15.30
2018-04-22T04:10:24.540Z,13.75
2018-04-22T04:10:57.824Z,14.87
2018-04-22T04:11:31.109Z,14.38
2018-04-22T04:12:04.401Z,16.55
2018-04-22T04:12:38.435Z,14.07
2018-04-22T04:13:11.713Z,17.20
2018-04-22T04:13:45.765Z,14.15
2018-04-22T04:14:19.041Z,13.60
2018-04-22T04:14:52.402Z,13.68
2018-04-22T04:15:25.684Z,13.85
2018-04-22T04:15:58.968Z,12.82
2018-04-22T04:16:32.246Z,15.00
2018-04-22T04:17:05.512Z,14.73
2018-04-22T04:17:38.786Z,14.50
2018-04-22T04:19:38.956Z,15.52
2018-04-22T04:20:24.014Z,15.73
2018-04-22T04:21:09.334Z,19.15
2018-04-22T04:21:54.387Z,16.20
2018-04-22T04:22:39.581Z,16.30
2018-04-22T04:23:12.872Z,14.80
2018-04-22T04:25:37.489Z,15.15
2018-04-22T04:26:33.977Z,15.73
2018-04-22T04:28:30.405Z,16.33
2018-04-22T04:29:03.673Z,14.87
2018-04-22T04:29:36.943Z,14.82
2018-04-22T04:30:10.220Z,14.65
2018-04-22T04:30:43.496Z,16.92
2018-04-22T04:31:16.768Z,15.57
2018-04-22T04:31:50.040Z,15.40
2018-04-22T04:32:23.316Z,14.63
2018-04-22T04:32:56.593Z,14.38
2018-04-22T04:33:29.856Z,15.85
2018-04-22T04:34:03.892Z,14.82
2018-04-22T04:34:37.174Z,15.75
2018-04-22T04:35:10.465Z,17.25
2018-04-22T04:35:43.737Z,18.37
2018-04-22T04:36:17.014Z,15.68
2018-04-22T04:36:50.285Z,16.58
2018-04-22T04:37:23.549Z,15.90
2018-04-22T04:37:57.589Z,15.07
2018-04-22T04:38:30.848Z,14.73
2018-04-22T04:39:04.128Z,15.05
2018-04-22T04:39:37.400Z,15.70
2018-04-22T04:40:10.698Z,15.52
2018-04-22T04:40:43.963Z,15.90
2018-04-22T04:41:17.233Z,15.45
2018-04-22T04:41:50.522Z,19.25
2018-04-22T04:42:23.796Z,17.67
2018-04-22T04:42:57.064Z,15.20
2018-04-22T04:43:30.370Z,16.80
2018-04-22T04:44:04.387Z,16.23
2018-04-22T04:44:37.651Z,16.58
2018-04-22T04:45:10.936Z,15.90
2018-04-22T04:45:44.212Z,15.60
2018-04-22T04:46:17.489Z,15.07
2018-04-22T04:46:50.776Z,14.80
2018-04-22T04:47:24.045Z,14.93
2018-04-22T04:47:57.329Z,15.02
2018-04-22T04:48:30.595Z,14.40
2018-04-22T04:49:03.870Z,15.98
2018-04-22T04:49:37.151Z,15.52
2018-04-22T04:50:10.429Z,14.98
2018-04-22T04:50:43.701Z,16.80
2018-04-22T04:51:17.737Z,13.48
2018-04-22T04:51:51.017Z,15.45
2018-04-22T04:52:24.288Z,16.27
2018-04-22T04:52:57.562Z,14.00
2018-04-22T04:53:30.830Z,17.33
2018-04-22T04:54:04.877Z,15.40
2018-04-22T04:54:38.152Z,15.15
2018-04-22T04:55:11.446Z,13.82
2018-04-22T04:55:44.732Z,14.80
2018-04-22T04:56:18.014Z,14.75
2018-04-22T04:56:51.292Z,14.30
2018-04-22T04:57:24.575Z,15.05
2018-04-22T04:57:57.909Z,15.35
2018-04-22T04:58:31.188Z,14.75
2018-04-22T04:59:04.493Z,14.82
2018-04-22T04:59:37.784Z,14.25
2018-04-22T05:00:11.361Z,13.98
2018-04-22T05:00:44.591Z,16.52
2018-04-22T05:01:18.645Z,13.18
2018-04-22T05:01:51.891Z,14.38
2018-04-22T05:02:25.164Z,14.00
2018-04-22T05:02:58.431Z,14.48
2018-04-22T05:03:31.695Z,14.32
2018-04-22T05:04:05.744Z,14.43
2018-04-22T05:04:39.004Z,14.02
2018-04-22T05:05:12.291Z,12.70
2018-04-22T05:05:45.585Z,14.18
2018-04-22T05:06:18.868Z,15.43
2018-04-22T05:06:52.148Z,14.48
2018-04-22T05:07:25.424Z,15.18
2018-04-22T05:07:58.708Z,13.68
2018-04-22T05:08:31.994Z,14.63
2018-04-22T05:09:06.174Z,14.40
2018-04-22T05:09:39.444Z,13.88
2018-04-22T05:10:12.729Z,14.65
2018-04-22T05:10:46.012Z,14.07
2018-04-22T05:11:19.285Z,15.50
2018-04-22T05:11:52.567Z,12.52
2018-04-22T05:12:25.841Z,14.35
2018-04-22T05:12:59.901Z,14.02
2018-04-22T05:13:33.171Z,14.52
2018-04-22T05:14:06.448Z,14.20
2018-04-22T05:14:39.726Z,14.75
2018-04-22T05:15:13.011Z,14.48
2018-04-22T05:15:46.305Z,12.98
2018-04-22T05:16:19.584Z,13.27
2018-04-22T05:16:52.923Z,15.30
2018-04-22T05:17:26.324Z,15.23
2018-04-22T05:17:59.585Z,16.12
2018-04-22T05:18:32.859Z,16.42
2018-04-22T05:19:06.131Z,14.77
2018-04-22T05:19:39.416Z,15.32
2018-04-22T05:20:12.685Z,15.93
2018-04-22T05:20:45.972Z,15.65
2018-04-22T05:21:20.031Z,16.02
2018-04-22T05:21:53.304Z,16.27
2018-04-22T05:22:26.600Z,15.70
2018-04-22T05:23:00.650Z,16.48
2018-04-22T05:23:33.932Z,17.08
2018-04-22T05:24:07.204Z,16.62
2018-04-22T05:24:40.476Z,17.35
2018-04-22T05:25:13.753Z,16.35
2018-04-22T05:25:47.012Z,18.70
2018-04-22T05:26:21.055Z,14.52
2018-04-22T05:26:54.334Z,15.90
2018-04-22T05:27:27.620Z,16.05
2018-04-22T05:28:00.895Z,15.88
2018-04-22T05:28:34.173Z,18.00
2018-04-22T05:29:07.447Z,17.60
2018-04-22T05:29:40.742Z,17.00
2018-04-22T05:30:14.777Z,15.82
2018-04-22T05:30:48.056Z,15.35
2018-04-22T05:31:22.128Z,16.42
2018-04-22T05:31:55.404Z,18.08
2018-04-22T05:32:28.676Z,16.02
2018-04-22T05:33:01.952Z,15.63
2018-04-22T05:33:35.225Z,16.05
2018-04-22T05:34:08.496Z,16.77
2018-04-22T05:34:41.781Z,16.00
2018-04-22T05:35:15.305Z,16.42
2018-04-22T05:35:48.588Z,15.32
2018-04-22T05:36:21.880Z,16.12
2018-04-22T05:36:55.149Z,14.45
2018-04-22T05:37:28.435Z,15.32
2018-04-22T05:38:01.696Z,16.33
2018-04-22T05:38:34.976Z,18.12
2018-04-22T05:39:08.274Z,18.35
2018-04-22T05:39:41.537Z,15.75
2018-04-22T05:40:14.825Z,14.80
2018-04-22T05:40:48.107Z,17.12
2018-04-22T05:41:21.402Z,17.90
2018-04-22T05:41:54.693Z,16.87
2018-04-22T05:42:28.746Z,17.98
2018-04-22T05:43:02.021Z,16.70
2018-04-22T05:43:35.307Z,16.33
2018-04-22T05:44:08.609Z,14.82
2018-04-22T05:44:42.661Z,17.15
2018-04-22T05:45:15.953Z,17.70
2018-04-22T05:45:49.241Z,15.50
2018-04-22T05:46:22.525Z,14.98
2018-04-22T05:46:55.807Z,16.90
2018-04-22T05:47:29.088Z,16.33
2018-04-22T05:48:02.364Z,17.62
2018-04-22T05:48:35.644Z,16.48
2018-04-22T05:49:08.927Z,17.52
2018-04-22T05:49:42.192Z,14.27
2018-04-22T05:50:15.462Z,16.00
2018-04-22T05:50:48.729Z,16.67
2018-04-22T05:51:22.028Z,13.73
2018-04-22T05:51:55.325Z,15.13
2018-04-22T05:52:28.592Z,14.80
2018-04-22T05:53:01.859Z,17.65
2018-04-22T05:53:35.127Z,15.60
2018-04-22T05:54:08.408Z,18.45
2018-04-22T05:54:41.680Z,15.30
2018-04-22T05:55:15.715Z,15.88
2018-04-22T05:55:48.984Z,15.98
2018-04-22T05:56:22.273Z,16.83
2018-04-22T05:56:55.553Z,15.43
2018-04-22T05:57:28.843Z,13.95
2018-04-22T05:58:02.126Z,17.95
2018-04-22T05:58:35.421Z,16.77
2018-04-22T05:59:08.701Z,18.25
2018-04-22T05:59:41.976Z,15.52
2018-04-22T06:00:15.268Z,12.90
2018-04-22T06:00:48.557Z,15.65
2018-04-22T06:01:21.860Z,15.73
2018-04-22T06:01:55.908Z,16.62
2018-04-22T06:02:29.185Z,14.95
2018-04-22T06:03:02.465Z,15.13
2018-04-22T06:03:35.745Z,14.23
2018-04-22T06:04:09.037Z,13.40
2018-04-22T06:04:42.311Z,15.05
2018-04-22T06:05:15.611Z,14.23
2018-04-22T06:05:48.880Z,16.67
2018-04-22T06:06:22.180Z,15.65
2018-04-22T06:06:55.448Z,17.05
2018-04-22T06:07:28.732Z,16.10
2018-04-22T06:08:02.013Z,16.77
2018-04-22T06:08:35.308Z,16.20
2018-04-22T06:09:08.572Z,16.08
2018-04-22T06:09:41.844Z,15.15
2018-04-22T06:10:15.169Z,15.00
2018-04-22T06:10:49.213Z,17.05
2018-04-22T06:11:22.539Z,17.95
2018-04-22T06:11:56.576Z,15.82
2018-04-22T06:12:29.857Z,17.05
2018-04-22T06:13:03.134Z,17.50
2018-04-22T06:13:36.401Z,16.87
2018-04-22T06:14:09.667Z,17.52
2018-04-22T06:14:42.954Z,18.48
2018-04-22T06:15:16.224Z,16.83
2018-04-22T06:15:50.281Z,17.17
2018-04-22T06:16:23.577Z,15.38
2018-04-22T06:16:56.845Z,15.57
2018-04-22T06:17:30.121Z,16.05
2018-04-22T06:18:03.393Z,18.20
2018-04-22T06:18:36.673Z,14.98
2018-04-22T06:19:09.954Z,16.10
2018-04-22T06:19:43.225Z,18.20
2018-04-22T06:20:16.531Z,16.48
2018-04-22T06:20:49.795Z,15.48
2018-04-22T06:21:23.882Z,14.77
2018-04-22T06:21:57.162Z,14.70
2018-04-22T06:22:30.769Z,17.23
2018-04-22T06:23:04.083Z,15.77
2018-04-22T06:23:37.361Z,15.40
2018-04-22T06:24:10.641Z,14.95
2018-04-22T06:24:44.693Z,16.65
2018-04-22T06:25:18.727Z,14.27
2018-04-22T06:25:52.025Z,13.98
2018-04-22T06:26:25.319Z,15.95
2018-04-22T06:26:58.596Z,15.63
2018-04-22T06:27:31.876Z,13.57
2018-04-22T06:28:05.156Z,15.13
2018-04-22T06:28:38.436Z,17.60
2018-04-22T06:29:12.485Z,13.60
2018-04-22T06:29:46.543Z,13.98
2018-04-22T06:30:19.816Z,14.80
2018-04-22T06:30:53.100Z,13.80
2018-04-22T06:31:26.384Z,14.93
2018-04-22T06:31:59.660Z,15.20
2018-04-22T06:32:32.929Z,15.82
2018-04-22T06:33:06.983Z,14.68
2018-04-22T06:33:40.296Z,13.80
2018-04-22T06:34:13.518Z,16.27
2018-04-22T06:34:46.802Z,13.93
2018-04-22T06:35:20.068Z,14.20
2018-04-22T06:35:53.359Z,13.60
2018-04-22T06:36:26.654Z,18.62
2018-04-22T06:36:59.948Z,15.73
2018-04-22T06:37:33.237Z,15.45
2018-04-22T06:38:06.524Z,14.32
2018-04-22T06:38:39.815Z,14.25
2018-04-22T06:39:13.104Z,14.75
2018-04-22T06:39:47.160Z,14.30
2018-04-22T06:40:20.560Z,15.30
2018-04-22T06:40:53.980Z,13.30
2018-04-22T06:41:27.304Z,15.52
2018-04-22T06:42:00.613Z,14.93
2018-04-22T06:42:33.868Z,16.30
2018-04-22T06:43:07.159Z,16.08
2018-04-22T06:43:40.450Z,14.60
2018-04-22T06:44:13.736Z,14.10
2018-04-22T06:44:47.014Z,14.18
2018-04-22T06:45:20.288Z,16.20
2018-04-22T06:45:53.564Z,16.17
2018-04-22T06:46:26.927Z,18.52
2018-04-22T06:47:00.208Z,18.23
2018-04-22T06:47:33.493Z,16.00
2018-04-22T06:48:06.756Z,17.37
2018-04-22T06:48:40.037Z,15.02
2018-04-22T06:49:13.317Z,16.40
2018-04-22T06:49:46.601Z,14.95
2018-04-22T06:50:19.865Z,16.10
2018-04-22T06:50:53.148Z,16.17
2018-04-22T06:51:26.445Z,16.23
2018-04-22T06:51:59.741Z,15.40
2018-04-22T06:52:33.024Z,15.57
2018-04-22T06:53:06.315Z,15.75
2018-04-22T06:53:39.597Z,14.80
2018-04-22T06:54:12.895Z,14.70
2018-04-22T06:54:46.927Z,15.95
2018-04-22T06:55:20.197Z,15.23
2018-04-22T06:55:53.471Z,14.80
2018-04-22T06:56:26.777Z,16.58
2018-04-22T06:57:00.067Z,16.33
2018-04-22T06:57:33.376Z,16.95
2018-04-22T06:58:06.668Z,16.27
2018-04-22T06:58:39.937Z,16.08
2018-04-22T06:59:13.205Z,15.88
2018-04-22T06:59:46.503Z,16.20
2018-04-22T07:00:20.539Z,15.90
2018-04-22T07:00:53.809Z,16.55
2018-04-22T07:01:27.097Z,15.25
2018-04-22T07:02:00.405Z,15.50
2018-04-22T07:02:33.685Z,21.15
2018-04-22T07:03:06.957Z,17.10
2018-04-22T07:03:40.248Z,17.33
2018-04-22T07:04:13.513Z,18.50
2018-04-22T07:04:46.788Z,18.95
2018-04-22T07:05:20.078Z,20.52
2018-04-22T07:05:53.361Z,19.65
2018-04-22T07:06:26.618Z,22.95
2018-04-22T07:06:59.896Z,19.20
2018-04-22T07:07:33.188Z,19.30
2018-04-22T07:08:06.464Z,19.25
2018-04-22T07:08:39.736Z,19.27
2018-04-22T07:09:13.009Z,19.15
2018-04-22T07:09:46.288Z,19.08
2018-04-22T07:10:20.328Z,21.10
2018-04-22T07:10:53.631Z,19.37
2018-04-22T07:11:27.666Z,18.98
2018-04-22T07:12:01.745Z,19.85
2018-04-22T07:12:35.037Z,18.95
2018-04-22T07:13:09.086Z,18.45
2018-04-22T07:13:42.377Z,20.40
2018-04-22T07:14:15.669Z,20.00
2018-04-22T07:14:48.952Z,18.50
2018-04-22T07:15:22.220Z,19.58
2018-04-22T07:15:55.524Z,19.12
2018-04-22T07:16:28.788Z,19.62
2018-04-22T07:17:02.077Z,19.10
2018-04-22T07:17:35.377Z,20.40
2018-04-22T07:18:08.652Z,19.30
2018-04-22T07:18:42.677Z,19.98